sensor_id;sensor_type;location;lat;lon;timestamp;P1;durP1;ratioP1;P2;durP2;ratioP2
54621;SDS011;40521;53.146;6.556;2022-09-20T00:01:19;11.57;;;2.47;;
54621;SDS011;40521;53.146;6.556;2022-09-20T00:03:54;8.82;;;2.92;;
54621;SDS011;40521;53.146;6.556;2022-09-20T00:06:22;12.55;;;2.83;;
54621;SDS011;40521;53.146;6.556;2022-09-20T00:08:51;10.65;;;2.45;;
54621;SDS011;40521;53.146;6.556;2022-09-20T00:11:21;14.40;;;2.17;;
54621;SDS011;40521;53.146;6.556;2022-09-20T00:13:52;11.63;;;2.78;;
54621;SDS011;40521;53.146;6.556;2022-09-20T00:16:21;7.55;;;1.90;;
54621;SDS011;40521;53.146;6.556;2022-09-20T00:18:50;7.22;;;2.47;;
54621;SDS011;40521;53.146;6.556;2022-09-20T00:21:18;9.38;;;2.22;;
54621;SDS011;40521;53.146;6.556;2022-09-20T00:23:46;12.60;;;2.53;;
54621;SDS011;40521;53.146;6.556;2022-09-20T00:26:12;8.30;;;2.38;;
54621;SDS011;40521;53.146;6.556;2022-09-20T00:28:39;14.30;;;2.95;;
54621;SDS011;40521;53.146;6.556;2022-09-20T00:31:06;11.05;;;2.30;;
54621;SDS011;40521;53.146;6.556;2022-09-20T00:33:32;15.05;;;3.33;;
54621;SDS011;40521;53.146;6.556;2022-09-20T00:36:24;13.95;;;2.63;;
54621;SDS011;40521;53.146;6.556;2022-09-20T00:39:01;13.55;;;2.88;;
54621;SDS011;40521;53.146;6.556;2022-09-20T00:41:28;9.63;;;2.38;;
54621;SDS011;40521;53.146;6.556;2022-09-20T00:43:55;7.50;;;2.10;;
54621;SDS011;40521;53.146;6.556;2022-09-20T00:46:23;11.00;;;2.25;;
54621;SDS011;40521;53.146;6.556;2022-09-20T00:48:55;12.27;;;2.60;;
54621;SDS011;40521;53.146;6.556;2022-09-20T00:51:27;11.93;;;2.80;;
54621;SDS011;40521;53.146;6.556;2022-09-20T00:53:55;9.50;;;2.28;;
54621;SDS011;40521;53.146;6.556;2022-09-20T00:56:35;10.70;;;3.30;;
54621;SDS011;40521;53.146;6.556;2022-09-20T00:59:08;9.27;;;2.17;;
54621;SDS011;40521;53.146;6.556;2022-09-20T01:01:41;10.68;;;2.58;;
54621;SDS011;40521;53.146;6.556;2022-09-20T01:04:07;11.00;;;2.38;;
54621;SDS011;40521;53.146;6.556;2022-09-20T01:06:35;14.05;;;2.95;;
54621;SDS011;40521;53.146;6.556;2022-09-20T01:09:01;11.75;;;2.75;;
54621;SDS011;40521;53.146;6.556;2022-09-20T01:11:29;7.40;;;2.13;;
54621;SDS011;40521;53.146;6.556;2022-09-20T01:13:55;9.18;;;2.42;;
54621;SDS011;40521;53.146;6.556;2022-09-20T01:16:21;9.10;;;2.30;;
54621;SDS011;40521;53.146;6.556;2022-09-20T01:18:48;8.68;;;2.10;;
54621;SDS011;40521;53.146;6.556;2022-09-20T01:21:15;8.40;;;2.25;;
54621;SDS011;40521;53.146;6.556;2022-09-20T01:31:43;10.25;;;2.15;;
54621;SDS011;40521;53.146;6.556;2022-09-20T01:36:56;9.35;;;2.40;;
54621;SDS011;40521;53.146;6.556;2022-09-20T01:39:35;8.88;;;2.22;;
54621;SDS011;40521;53.146;6.556;2022-09-20T01:42:12;8.30;;;1.90;;
54621;SDS011;40521;53.146;6.556;2022-09-20T01:48:12;11.70;;;2.63;;
54621;SDS011;40521;53.146;6.556;2022-09-20T02:06:22;11.70;;;2.60;;
54621;SDS011;40521;53.146;6.556;2022-09-20T02:14:58;9.80;;;2.60;;
54621;SDS011;40521;53.146;6.556;2022-09-20T02:17:26;10.35;;;2.13;;
54621;SDS011;40521;53.146;6.556;2022-09-20T02:39:14;11.35;;;2.58;;
54621;SDS011;40521;53.146;6.556;2022-09-20T02:42:06;11.38;;;2.72;;
54621;SDS011;40521;53.146;6.556;2022-09-20T02:45:01;10.35;;;2.50;;
54621;SDS011;40521;53.146;6.556;2022-09-20T03:01:01;7.63;;;2.50;;
54621;SDS011;40521;53.146;6.556;2022-09-20T03:06:38;10.38;;;2.33;;
54621;SDS011;40521;53.146;6.556;2022-09-20T03:14:30;10.63;;;2.00;;
54621;SDS011;40521;53.146;6.556;2022-09-20T03:17:19;6.40;;;1.75;;
54621;SDS011;40521;53.146;6.556;2022-09-20T03:20:03;11.18;;;2.20;;
54621;SDS011;40521;53.146;6.556;2022-09-20T03:22:52;10.10;;;2.30;;
54621;SDS011;40521;53.146;6.556;2022-09-20T03:25:52;7.40;;;2.10;;
54621;SDS011;40521;53.146;6.556;2022-09-20T03:33:54;8.95;;;2.00;;
54621;SDS011;40521;53.146;6.556;2022-09-20T03:36:39;10.13;;;2.22;;
54621;SDS011;40521;53.146;6.556;2022-09-20T03:42:55;8.35;;;2.35;;
54621;SDS011;40521;53.146;6.556;2022-09-20T03:45:38;9.10;;;2.85;;
54621;SDS011;40521;53.146;6.556;2022-09-20T03:54:17;11.20;;;2.35;;
54621;SDS011;40521;53.146;6.556;2022-09-20T03:57:09;9.27;;;2.30;;
54621;SDS011;40521;53.146;6.556;2022-09-20T04:10:31;9.18;;;2.22;;
54621;SDS011;40521;53.146;6.556;2022-09-20T04:13:16;7.55;;;2.28;;
54621;SDS011;40521;53.146;6.556;2022-09-20T04:26:49;11.57;;;2.20;;
54621;SDS011;40521;53.146;6.556;2022-09-20T04:29:41;7.88;;;2.20;;
54621;SDS011;40521;53.146;6.556;2022-09-20T04:38:20;9.55;;;2.13;;
54621;SDS011;40521;53.146;6.556;2022-09-20T04:40:52;8.50;;;2.08;;
54621;SDS011;40521;53.146;6.556;2022-09-20T04:46:56;5.82;;;1.92;;
54621;SDS011;40521;53.146;6.556;2022-09-20T04:55:17;9.75;;;2.00;;
54621;SDS011;40521;53.146;6.556;2022-09-20T05:11:55;8.25;;;2.67;;
54621;SDS011;40521;53.146;6.556;2022-09-20T05:31:34;7.82;;;2.00;;
54621;SDS011;40521;53.146;6.556;2022-09-20T05:40:00;7.65;;;2.03;;
54621;SDS011;40521;53.146;6.556;2022-09-20T05:43:14;6.35;;;2.30;;
54621;SDS011;40521;53.146;6.556;2022-09-20T05:48:56;5.30;;;2.10;;
54621;SDS011;40521;53.146;6.556;2022-09-20T06:05:12;7.85;;;2.00;;
54621;SDS011;40521;53.146;6.556;2022-09-20T06:10:45;5.90;;;1.88;;
54621;SDS011;40521;53.146;6.556;2022-09-20T06:13:59;9.20;;;2.42;;
54621;SDS011;40521;53.146;6.556;2022-09-20T06:16:36;9.40;;;2.20;;
54621;SDS011;40521;53.146;6.556;2022-09-20T06:27:16;7.88;;;2.40;;
54621;SDS011;40521;53.146;6.556;2022-09-20T06:29:49;9.88;;;2.03;;
54621;SDS011;40521;53.146;6.556;2022-09-20T06:32:22;7.43;;;2.30;;
54621;SDS011;40521;53.146;6.556;2022-09-20T06:34:48;7.35;;;2.40;;
54621;SDS011;40521;53.146;6.556;2022-09-20T06:40:06;8.77;;;2.60;;
54621;SDS011;40521;53.146;6.556;2022-09-20T06:42:57;9.50;;;2.42;;
54621;SDS011;40521;53.146;6.556;2022-09-20T06:45:25;12.68;;;2.85;;
54621;SDS011;40521;53.146;6.556;2022-09-20T06:47:50;8.98;;;2.50;;
54621;SDS011;40521;53.146;6.556;2022-09-20T06:50:16;9.65;;;2.60;;
54621;SDS011;40521;53.146;6.556;2022-09-20T06:52:43;9.82;;;2.30;;
54621;SDS011;40521;53.146;6.556;2022-09-20T06:55:14;12.60;;;2.35;;
54621;SDS011;40521;53.146;6.556;2022-09-20T06:57:45;7.85;;;2.15;;
54621;SDS011;40521;53.146;6.556;2022-09-20T07:00:14;7.15;;;2.35;;
54621;SDS011;40521;53.146;6.556;2022-09-20T07:02:43;9.07;;;2.33;;
54621;SDS011;40521;53.146;6.556;2022-09-20T07:05:13;8.65;;;2.92;;
54621;SDS011;40521;53.146;6.556;2022-09-20T07:07:39;12.13;;;2.92;;
54621;SDS011;40521;53.146;6.556;2022-09-20T07:10:05;8.57;;;2.25;;
54621;SDS011;40521;53.146;6.556;2022-09-20T07:12:31;7.95;;;1.90;;
54621;SDS011;40521;53.146;6.556;2022-09-20T07:14:59;7.80;;;1.85;;
54621;SDS011;40521;53.146;6.556;2022-09-20T07:17:24;10.50;;;2.00;;
54621;SDS011;40521;53.146;6.556;2022-09-20T07:19:51;6.22;;;1.70;;
54621;SDS011;40521;53.146;6.556;2022-09-20T07:22:17;10.98;;;2.05;;
54621;SDS011;40521;53.146;6.556;2022-09-20T07:24:43;7.20;;;2.22;;
54621;SDS011;40521;53.146;6.556;2022-09-20T07:27:09;12.23;;;2.25;;
54621;SDS011;40521;53.146;6.556;2022-09-20T07:29:35;6.68;;;1.67;;
54621;SDS011;40521;53.146;6.556;2022-09-20T07:32:01;6.65;;;1.95;;
54621;SDS011;40521;53.146;6.556;2022-09-20T07:34:27;7.03;;;1.90;;
54621;SDS011;40521;53.146;6.556;2022-09-20T07:36:56;8.43;;;2.03;;
54621;SDS011;40521;53.146;6.556;2022-09-20T07:39:23;11.05;;;2.30;;
54621;SDS011;40521;53.146;6.556;2022-09-20T07:41:50;7.88;;;1.90;;
54621;SDS011;40521;53.146;6.556;2022-09-20T07:44:16;6.63;;;1.90;;
54621;SDS011;40521;53.146;6.556;2022-09-20T07:46:51;9.88;;;2.20;;
54621;SDS011;40521;53.146;6.556;2022-09-20T07:49:19;5.93;;;1.88;;
54621;SDS011;40521;53.146;6.556;2022-09-20T07:51:46;7.15;;;1.90;;
54621;SDS011;40521;53.146;6.556;2022-09-20T07:54:13;6.57;;;2.25;;
54621;SDS011;40521;53.146;6.556;2022-09-20T07:56:39;9.65;;;2.17;;
54621;SDS011;40521;53.146;6.556;2022-09-20T07:59:05;6.05;;;1.38;;
54621;SDS011;40521;53.146;6.556;2022-09-20T08:01:31;9.43;;;1.98;;
54621;SDS011;40521;53.146;6.556;2022-09-20T08:03:57;7.60;;;1.73;;
54621;SDS011;40521;53.146;6.556;2022-09-20T08:06:23;8.98;;;2.10;;
54621;SDS011;40521;53.146;6.556;2022-09-20T08:08:50;8.30;;;1.70;;
54621;SDS011;40521;53.146;6.556;2022-09-20T08:11:18;9.40;;;1.80;;
54621;SDS011;40521;53.146;6.556;2022-09-20T08:13:52;7.03;;;1.70;;
54621;SDS011;40521;53.146;6.556;2022-09-20T08:16:20;9.38;;;2.13;;
54621;SDS011;40521;53.146;6.556;2022-09-20T08:18:50;8.95;;;1.60;;
54621;SDS011;40521;53.146;6.556;2022-09-20T08:21:19;6.93;;;1.63;;
54621;SDS011;40521;53.146;6.556;2022-09-20T08:23:45;5.68;;;1.60;;
54621;SDS011;40521;53.146;6.556;2022-09-20T08:26:15;12.10;;;3.58;;
54621;SDS011;40521;53.146;6.556;2022-09-20T08:28:44;6.85;;;2.00;;
54621;SDS011;40521;53.146;6.556;2022-09-20T08:31:11;12.23;;;2.10;;
54621;SDS011;40521;53.146;6.556;2022-09-20T08:33:39;7.38;;;1.85;;
54621;SDS011;40521;53.146;6.556;2022-09-20T08:36:06;11.63;;;2.20;;
54621;SDS011;40521;53.146;6.556;2022-09-20T08:38:35;10.13;;;2.13;;
54621;SDS011;40521;53.146;6.556;2022-09-20T08:43:50;6.00;;;1.90;;
54621;SDS011;40521;53.146;6.556;2022-09-20T08:46:21;7.85;;;2.00;;
54621;SDS011;40521;53.146;6.556;2022-09-20T08:48:51;6.10;;;1.75;;
54621;SDS011;40521;53.146;6.556;2022-09-20T08:51:17;4.60;;;1.40;;
54621;SDS011;40521;53.146;6.556;2022-09-20T08:53:45;13.07;;;1.95;;
54621;SDS011;40521;53.146;6.556;2022-09-20T08:56:16;7.72;;;1.80;;
54621;SDS011;40521;53.146;6.556;2022-09-20T08:58:45;9.00;;;1.98;;
54621;SDS011;40521;53.146;6.556;2022-09-20T09:01:21;9.52;;;2.13;;
54621;SDS011;40521;53.146;6.556;2022-09-20T09:03:49;7.18;;;1.70;;
54621;SDS011;40521;53.146;6.556;2022-09-20T09:06:16;7.00;;;1.60;;
54621;SDS011;40521;53.146;6.556;2022-09-20T09:08:49;9.05;;;1.80;;
54621;SDS011;40521;53.146;6.556;2022-09-20T09:11:18;4.28;;;1.35;;
54621;SDS011;40521;53.146;6.556;2022-09-20T09:16:23;4.72;;;1.10;;
54621;SDS011;40521;53.146;6.556;2022-09-20T09:18:51;10.02;;;2.33;;
54621;SDS011;40521;53.146;6.556;2022-09-20T09:21:20;4.53;;;1.45;;
54621;SDS011;40521;53.146;6.556;2022-09-20T09:23:49;5.95;;;1.40;;
54621;SDS011;40521;53.146;6.556;2022-09-20T09:26:36;7.28;;;1.33;;
54621;SDS011;40521;53.146;6.556;2022-09-20T09:31:44;6.95;;;1.50;;
54621;SDS011;40521;53.146;6.556;2022-09-20T09:34:22;6.85;;;1.40;;
54621;SDS011;40521;53.146;6.556;2022-09-20T09:37:02;7.90;;;1.60;;
54621;SDS011;40521;53.146;6.556;2022-09-20T09:39:34;5.13;;;1.60;;
54621;SDS011;40521;53.146;6.556;2022-09-20T09:42:18;4.45;;;1.20;;
54621;SDS011;40521;53.146;6.556;2022-09-20T09:44:50;6.70;;;1.52;;
54621;SDS011;40521;53.146;6.556;2022-09-20T09:47:22;4.40;;;1.27;;
54621;SDS011;40521;53.146;6.556;2022-09-20T09:49:57;6.15;;;1.30;;
54621;SDS011;40521;53.146;6.556;2022-09-20T09:52:24;4.82;;;1.38;;
54621;SDS011;40521;53.146;6.556;2022-09-20T09:54:53;7.63;;;1.38;;
54621;SDS011;40521;53.146;6.556;2022-09-20T10:00:28;6.50;;;1.58;;
54621;SDS011;40521;53.146;6.556;2022-09-20T10:36:58;9.13;;;1.40;;
54621;SDS011;40521;53.146;6.556;2022-09-20T10:39:38;8.18;;;1.88;;
54621;SDS011;40521;53.146;6.556;2022-09-20T10:50:57;10.23;;;1.85;;
54621;SDS011;40521;53.146;6.556;2022-09-20T10:58:47;7.82;;;1.70;;
54621;SDS011;40521;53.146;6.556;2022-09-20T11:07:17;7.95;;;2.38;;
54621;SDS011;40521;53.146;6.556;2022-09-20T11:10:05;7.18;;;2.13;;
54621;SDS011;40521;53.146;6.556;2022-09-20T11:15:40;7.05;;;1.88;;
54621;SDS011;40521;53.146;6.556;2022-09-20T11:18:18;6.28;;;1.65;;
54621;SDS011;40521;53.146;6.556;2022-09-20T11:21:02;10.38;;;1.42;;
54621;SDS011;40521;53.146;6.556;2022-09-20T11:23:48;7.90;;;1.60;;
54621;SDS011;40521;53.146;6.556;2022-09-20T11:26:45;8.50;;;1.90;;
54621;SDS011;40521;53.146;6.556;2022-09-20T11:29:28;8.63;;;1.73;;
54621;SDS011;40521;53.146;6.556;2022-09-20T11:31:59;8.80;;;1.70;;
54621;SDS011;40521;53.146;6.556;2022-09-20T11:34:32;7.40;;;1.58;;
54621;SDS011;40521;53.146;6.556;2022-09-20T11:37:04;7.10;;;1.40;;
54621;SDS011;40521;53.146;6.556;2022-09-20T11:42:21;7.03;;;1.63;;
54621;SDS011;40521;53.146;6.556;2022-09-20T11:44:52;7.72;;;1.80;;
54621;SDS011;40521;53.146;6.556;2022-09-20T11:49:54;4.63;;;1.25;;
54621;SDS011;40521;53.146;6.556;2022-09-20T11:55:02;5.57;;;1.42;;
54621;SDS011;40521;53.146;6.556;2022-09-20T11:57:44;6.68;;;1.48;;
54621;SDS011;40521;53.146;6.556;2022-09-20T12:00:11;9.15;;;1.50;;
54621;SDS011;40521;53.146;6.556;2022-09-20T12:05:04;4.80;;;1.13;;
54621;SDS011;40521;53.146;6.556;2022-09-20T12:07:33;6.82;;;1.42;;
54621;SDS011;40521;53.146;6.556;2022-09-20T12:10:06;5.90;;;1.30;;
54621;SDS011;40521;53.146;6.556;2022-09-20T12:12:47;4.75;;;1.30;;
54621;SDS011;40521;53.146;6.556;2022-09-20T12:15:40;9.45;;;1.80;;
54621;SDS011;40521;53.146;6.556;2022-09-20T12:18:27;8.13;;;1.70;;
54621;SDS011;40521;53.146;6.556;2022-09-20T12:21:22;7.45;;;1.38;;
54621;SDS011;40521;53.146;6.556;2022-09-20T12:31:50;6.22;;;1.52;;
54621;SDS011;40521;53.146;6.556;2022-09-20T12:39:22;5.40;;;1.50;;
54621;SDS011;40521;53.146;6.556;2022-09-20T13:03:44;7.85;;;1.75;;
54621;SDS011;40521;53.146;6.556;2022-09-20T13:13:48;7.32;;;1.33;;
54621;SDS011;40521;53.146;6.556;2022-09-20T13:16:53;5.10;;;0.95;;
54621;SDS011;40521;53.146;6.556;2022-09-20T13:19:33;4.53;;;1.20;;
54621;SDS011;40521;53.146;6.556;2022-09-20T13:22:13;5.78;;;1.20;;
54621;SDS011;40521;53.146;6.556;2022-09-20T13:24:48;4.70;;;1.27;;
54621;SDS011;40521;53.146;6.556;2022-09-20T13:27:32;6.72;;;1.40;;
54621;SDS011;40521;53.146;6.556;2022-09-20T13:32:49;5.25;;;1.30;;
54621;SDS011;40521;53.146;6.556;2022-09-20T13:35:23;4.65;;;1.20;;
54621;SDS011;40521;53.146;6.556;2022-09-20T13:38:01;5.82;;;1.30;;
54621;SDS011;40521;53.146;6.556;2022-09-20T13:40:38;8.90;;;2.78;;
54621;SDS011;40521;53.146;6.556;2022-09-20T13:45:58;8.65;;;1.58;;
54621;SDS011;40521;53.146;6.556;2022-09-20T13:48:30;5.70;;;1.45;;
54621;SDS011;40521;53.146;6.556;2022-09-20T13:50:56;7.65;;;1.70;;
54621;SDS011;40521;53.146;6.556;2022-09-20T13:53:25;9.07;;;2.28;;
54621;SDS011;40521;53.146;6.556;2022-09-20T13:55:54;7.00;;;1.38;;
54621;SDS011;40521;53.146;6.556;2022-09-20T13:58:21;7.18;;;1.30;;
54621;SDS011;40521;53.146;6.556;2022-09-20T14:00:57;8.30;;;1.33;;
54621;SDS011;40521;53.146;6.556;2022-09-20T14:03:27;5.75;;;1.58;;
54621;SDS011;40521;53.146;6.556;2022-09-20T14:05:55;5.53;;;1.17;;
54621;SDS011;40521;53.146;6.556;2022-09-20T14:08:32;5.03;;;1.48;;
54621;SDS011;40521;53.146;6.556;2022-09-20T14:11:12;4.43;;;1.10;;
54621;SDS011;40521;53.146;6.556;2022-09-20T14:13:43;8.48;;;1.65;;
54621;SDS011;40521;53.146;6.556;2022-09-20T14:16:11;5.35;;;1.60;;
54621;SDS011;40521;53.146;6.556;2022-09-20T14:18:38;6.97;;;1.55;;
54621;SDS011;40521;53.146;6.556;2022-09-20T14:21:08;5.95;;;1.25;;
54621;SDS011;40521;53.146;6.556;2022-09-20T14:23:51;10.38;;;1.38;;
54621;SDS011;40521;53.146;6.556;2022-09-20T14:26:31;5.55;;;1.30;;
54621;SDS011;40521;53.146;6.556;2022-09-20T14:37:11;5.18;;;1.30;;
54621;SDS011;40521;53.146;6.556;2022-09-20T14:39:45;4.78;;;1.00;;
54621;SDS011;40521;53.146;6.556;2022-09-20T14:42:19;6.05;;;1.20;;
54621;SDS011;40521;53.146;6.556;2022-09-20T14:44:49;4.55;;;1.15;;
54621;SDS011;40521;53.146;6.556;2022-09-20T14:47:22;6.22;;;1.20;;
54621;SDS011;40521;53.146;6.556;2022-09-20T14:49:53;3.55;;;1.20;;
54621;SDS011;40521;53.146;6.556;2022-09-20T14:55:27;6.40;;;1.30;;
54621;SDS011;40521;53.146;6.556;2022-09-20T14:57:56;8.77;;;2.17;;
54621;SDS011;40521;53.146;6.556;2022-09-20T15:00:27;7.47;;;1.42;;
54621;SDS011;40521;53.146;6.556;2022-09-20T15:02:54;10.63;;;1.83;;
54621;SDS011;40521;53.146;6.556;2022-09-20T15:05:30;5.95;;;1.02;;
54621;SDS011;40521;53.146;6.556;2022-09-20T15:07:59;6.50;;;1.55;;
54621;SDS011;40521;53.146;6.556;2022-09-20T15:10:30;6.15;;;1.23;;
54621;SDS011;40521;53.146;6.556;2022-09-20T15:12:56;5.85;;;1.55;;
54621;SDS011;40521;53.146;6.556;2022-09-20T15:15:22;5.20;;;1.30;;
54621;SDS011;40521;53.146;6.556;2022-09-20T15:17:48;9.73;;;1.63;;
54621;SDS011;40521;53.146;6.556;2022-09-20T15:20:18;6.43;;;1.35;;
54621;SDS011;40521;53.146;6.556;2022-09-20T15:22:46;4.80;;;1.30;;
54621;SDS011;40521;53.146;6.556;2022-09-20T15:25:14;4.70;;;1.15;;
54621;SDS011;40521;53.146;6.556;2022-09-20T15:27:42;7.50;;;1.30;;
54621;SDS011;40521;53.146;6.556;2022-09-20T15:30:11;7.45;;;1.58;;
54621;SDS011;40521;53.146;6.556;2022-09-20T15:32:40;4.40;;;1.00;;
54621;SDS011;40521;53.146;6.556;2022-09-20T15:35:07;4.60;;;1.45;;
54621;SDS011;40521;53.146;6.556;2022-09-20T15:37:33;6.55;;;1.25;;
54621;SDS011;40521;53.146;6.556;2022-09-20T15:40:00;11.85;;;1.70;;
54621;SDS011;40521;53.146;6.556;2022-09-20T15:42:30;3.75;;;1.10;;
54621;SDS011;40521;53.146;6.556;2022-09-20T15:44:56;9.23;;;1.73;;
54621;SDS011;40521;53.146;6.556;2022-09-20T15:47:22;4.10;;;1.10;;
54621;SDS011;40521;53.146;6.556;2022-09-20T15:49:48;6.13;;;1.45;;
54621;SDS011;40521;53.146;6.556;2022-09-20T15:52:17;5.97;;;1.35;;
54621;SDS011;40521;53.146;6.556;2022-09-20T15:54:48;3.55;;;1.05;;
54621;SDS011;40521;53.146;6.556;2022-09-20T15:57:14;5.60;;;1.35;;
54621;SDS011;40521;53.146;6.556;2022-09-20T15:59:40;6.38;;;1.95;;
54621;SDS011;40521;53.146;6.556;2022-09-20T16:02:08;5.97;;;1.27;;
54621;SDS011;40521;53.146;6.556;2022-09-20T16:04:35;6.45;;;1.40;;
54621;SDS011;40521;53.146;6.556;2022-09-20T16:07:01;5.10;;;1.15;;
54621;SDS011;40521;53.146;6.556;2022-09-20T16:09:27;4.55;;;1.50;;
54621;SDS011;40521;53.146;6.556;2022-09-20T16:11:54;5.90;;;1.42;;
54621;SDS011;40521;53.146;6.556;2022-09-20T16:14:23;6.28;;;1.30;;
54621;SDS011;40521;53.146;6.556;2022-09-20T16:16:49;7.88;;;1.30;;
54621;SDS011;40521;53.146;6.556;2022-09-20T16:19:14;6.38;;;1.20;;
54621;SDS011;40521;53.146;6.556;2022-09-20T16:24:18;8.13;;;1.85;;
54621;SDS011;40521;53.146;6.556;2022-09-20T16:26:48;6.32;;;1.25;;
54621;SDS011;40521;53.146;6.556;2022-09-20T16:29:14;6.10;;;1.40;;
54621;SDS011;40521;53.146;6.556;2022-09-20T16:31:44;6.15;;;1.40;;
54621;SDS011;40521;53.146;6.556;2022-09-20T16:36:45;7.15;;;1.55;;
54621;SDS011;40521;53.146;6.556;2022-09-20T16:39:13;12.50;;;1.90;;
54621;SDS011;40521;53.146;6.556;2022-09-20T16:41:40;6.78;;;1.50;;
54621;SDS011;40521;53.146;6.556;2022-09-20T16:44:07;6.00;;;1.48;;
54621;SDS011;40521;53.146;6.556;2022-09-20T16:46:33;7.45;;;2.05;;
54621;SDS011;40521;53.146;6.556;2022-09-20T16:49:02;5.03;;;1.50;;
54621;SDS011;40521;53.146;6.556;2022-09-20T16:51:37;6.85;;;1.55;;
54621;SDS011;40521;53.146;6.556;2022-09-20T16:54:23;7.72;;;1.65;;
54621;SDS011;40521;53.146;6.556;2022-09-20T16:56:49;6.45;;;1.52;;
54621;SDS011;40521;53.146;6.556;2022-09-20T16:59:19;7.07;;;1.58;;
54621;SDS011;40521;53.146;6.556;2022-09-20T17:01:45;11.63;;;2.10;;
54621;SDS011;40521;53.146;6.556;2022-09-20T17:04:12;7.28;;;1.75;;
54621;SDS011;40521;53.146;6.556;2022-09-20T17:06:39;10.05;;;1.55;;
54621;SDS011;40521;53.146;6.556;2022-09-20T17:09:07;6.47;;;1.50;;
54621;SDS011;40521;53.146;6.556;2022-09-20T17:11:36;8.43;;;1.60;;
54621;SDS011;40521;53.146;6.556;2022-09-20T17:14:04;6.22;;;1.30;;
54621;SDS011;40521;53.146;6.556;2022-09-20T17:16:31;9.25;;;2.45;;
54621;SDS011;40521;53.146;6.556;2022-09-20T17:19:06;8.20;;;1.90;;
54621;SDS011;40521;53.146;6.556;2022-09-20T17:21:37;8.48;;;1.45;;
54621;SDS011;40521;53.146;6.556;2022-09-20T17:24:05;6.97;;;1.60;;
54621;SDS011;40521;53.146;6.556;2022-09-20T17:26:41;6.65;;;1.48;;
54621;SDS011;40521;53.146;6.556;2022-09-20T17:29:10;9.52;;;1.75;;
54621;SDS011;40521;53.146;6.556;2022-09-20T17:31:40;9.88;;;1.70;;
54621;SDS011;40521;53.146;6.556;2022-09-20T17:34:09;6.32;;;1.92;;
54621;SDS011;40521;53.146;6.556;2022-09-20T17:36:38;6.80;;;2.10;;
54621;SDS011;40521;53.146;6.556;2022-09-20T17:39:06;6.03;;;2.22;;
54621;SDS011;40521;53.146;6.556;2022-09-20T17:41:35;7.35;;;2.58;;
54621;SDS011;40521;53.146;6.556;2022-09-20T17:44:01;9.95;;;3.20;;
54621;SDS011;40521;53.146;6.556;2022-09-20T17:46:32;8.15;;;2.85;;
54621;SDS011;40521;53.146;6.556;2022-09-20T17:49:00;7.05;;;2.40;;
54621;SDS011;40521;53.146;6.556;2022-09-20T17:51:28;6.65;;;2.13;;
54621;SDS011;40521;53.146;6.556;2022-09-20T17:53:55;9.77;;;1.98;;
54621;SDS011;40521;53.146;6.556;2022-09-20T17:56:21;4.85;;;1.83;;
54621;SDS011;40521;53.146;6.556;2022-09-20T17:58:48;7.82;;;1.90;;
54621;SDS011;40521;53.146;6.556;2022-09-20T18:01:15;7.28;;;2.13;;
54621;SDS011;40521;53.146;6.556;2022-09-20T18:03:43;6.63;;;1.80;;
54621;SDS011;40521;53.146;6.556;2022-09-20T18:08:37;7.97;;;1.70;;
54621;SDS011;40521;53.146;6.556;2022-09-20T18:11:03;6.55;;;1.70;;
54621;SDS011;40521;53.146;6.556;2022-09-20T18:13:29;7.35;;;1.90;;
54621;SDS011;40521;53.146;6.556;2022-09-20T18:15:55;6.38;;;1.67;;
54621;SDS011;40521;53.146;6.556;2022-09-20T18:18:21;5.18;;;1.70;;
54621;SDS011;40521;53.146;6.556;2022-09-20T18:20:47;7.32;;;1.63;;
54621;SDS011;40521;53.146;6.556;2022-09-20T18:23:13;4.65;;;1.40;;
54621;SDS011;40521;53.146;6.556;2022-09-20T18:25:38;6.80;;;1.60;;
54621;SDS011;40521;53.146;6.556;2022-09-20T18:28:22;7.00;;;1.60;;
54621;SDS011;40521;53.146;6.556;2022-09-20T18:31:00;6.00;;;1.83;;
54621;SDS011;40521;53.146;6.556;2022-09-20T18:33:28;8.15;;;1.80;;
54621;SDS011;40521;53.146;6.556;2022-09-20T18:35:59;7.38;;;1.80;;
54621;SDS011;40521;53.146;6.556;2022-09-20T18:38:25;8.18;;;2.20;;
54621;SDS011;40521;53.146;6.556;2022-09-20T18:40:55;7.03;;;1.95;;
54621;SDS011;40521;53.146;6.556;2022-09-20T18:43:25;6.77;;;1.70;;
54621;SDS011;40521;53.146;6.556;2022-09-20T18:45:52;8.15;;;1.73;;
54621;SDS011;40521;53.146;6.556;2022-09-20T18:48:19;7.00;;;1.98;;
54621;SDS011;40521;53.146;6.556;2022-09-20T18:51:22;8.52;;;2.00;;
54621;SDS011;40521;53.146;6.556;2022-09-20T18:53:40;6.80;;;2.22;;
54621;SDS011;40521;53.146;6.556;2022-09-20T18:56:18;9.13;;;2.15;;
54621;SDS011;40521;53.146;6.556;2022-09-20T18:59:23;8.05;;;2.35;;
54621;SDS011;40521;53.146;6.556;2022-09-20T19:13:28;7.93;;;1.80;;
54621;SDS011;40521;53.146;6.556;2022-09-20T19:16:15;8.05;;;2.75;;
54621;SDS011;40521;53.146;6.556;2022-09-20T19:27:16;10.65;;;4.35;;
54621;SDS011;40521;53.146;6.556;2022-09-20T19:29:42;10.30;;;3.88;;
54621;SDS011;40521;53.146;6.556;2022-09-20T19:32:10;9.68;;;5.30;;
54621;SDS011;40521;53.146;6.556;2022-09-20T19:34:42;10.68;;;5.28;;
54621;SDS011;40521;53.146;6.556;2022-09-20T19:40:10;6.43;;;2.30;;
54621;SDS011;40521;53.146;6.556;2022-09-20T19:48:38;6.47;;;1.88;;
54621;SDS011;40521;53.146;6.556;2022-09-20T19:51:12;6.43;;;1.63;;
54621;SDS011;40521;53.146;6.556;2022-09-20T19:53:39;6.72;;;1.50;;
54621;SDS011;40521;53.146;6.556;2022-09-20T19:58:37;6.35;;;2.08;;
54621;SDS011;40521;53.146;6.556;2022-09-20T20:01:06;3.45;;;1.15;;
54621;SDS011;40521;53.146;6.556;2022-09-20T20:03:33;5.28;;;1.60;;
54621;SDS011;40521;53.146;6.556;2022-09-20T20:14:38;1.40;;;0.73;;
54621;SDS011;40521;53.146;6.556;2022-09-20T20:26:19;7.30;;;2.55;;
54621;SDS011;40521;53.146;6.556;2022-09-20T20:28:47;11.52;;;2.80;;
54621;SDS011;40521;53.146;6.556;2022-09-20T20:31:14;8.73;;;2.95;;
54621;SDS011;40521;53.146;6.556;2022-09-20T20:33:40;6.50;;;2.65;;
54621;SDS011;40521;53.146;6.556;2022-09-20T20:36:08;7.88;;;2.83;;
54621;SDS011;40521;53.146;6.556;2022-09-20T20:38:36;11.02;;;4.05;;
54621;SDS011;40521;53.146;6.556;2022-09-20T20:41:06;9.80;;;3.22;;
54621;SDS011;40521;53.146;6.556;2022-09-20T20:43:34;7.80;;;3.08;;
54621;SDS011;40521;53.146;6.556;2022-09-20T20:46:03;10.07;;;3.22;;
54621;SDS011;40521;53.146;6.556;2022-09-20T20:48:30;8.57;;;3.20;;
54621;SDS011;40521;53.146;6.556;2022-09-20T20:53:33;6.38;;;3.08;;
54621;SDS011;40521;53.146;6.556;2022-09-20T20:56:05;6.88;;;3.20;;
54621;SDS011;40521;53.146;6.556;2022-09-20T20:58:37;5.97;;;1.70;;
54621;SDS011;40521;53.146;6.556;2022-09-20T21:03:38;5.88;;;1.80;;
54621;SDS011;40521;53.146;6.556;2022-09-20T21:06:07;6.10;;;1.65;;
54621;SDS011;40521;53.146;6.556;2022-09-20T21:08:34;6.43;;;2.38;;
54621;SDS011;40521;53.146;6.556;2022-09-20T21:11:09;6.28;;;2.42;;
54621;SDS011;40521;53.146;6.556;2022-09-20T21:13:37;5.78;;;2.58;;
54621;SDS011;40521;53.146;6.556;2022-09-20T21:16:04;9.50;;;2.40;;
54621;SDS011;40521;53.146;6.556;2022-09-20T21:18:35;7.78;;;2.53;;
54621;SDS011;40521;53.146;6.556;2022-09-20T21:21:02;8.75;;;2.35;;
54621;SDS011;40521;53.146;6.556;2022-09-20T21:23:32;7.13;;;2.55;;
54621;SDS011;40521;53.146;6.556;2022-09-20T21:25:59;5.97;;;2.65;;
54621;SDS011;40521;53.146;6.556;2022-09-20T21:28:35;7.78;;;3.03;;
54621;SDS011;40521;53.146;6.556;2022-09-20T21:31:06;7.93;;;3.10;;
54621;SDS011;40521;53.146;6.556;2022-09-20T21:33:36;10.55;;;3.08;;
54621;SDS011;40521;53.146;6.556;2022-09-20T21:36:04;5.72;;;2.75;;
54621;SDS011;40521;53.146;6.556;2022-09-20T21:38:30;8.30;;;3.00;;
54621;SDS011;40521;53.146;6.556;2022-09-20T21:43:32;7.33;;;3.20;;
54621;SDS011;40521;53.146;6.556;2022-09-20T21:45:58;6.75;;;2.63;;
54621;SDS011;40521;53.146;6.556;2022-09-20T21:48:25;6.20;;;2.83;;
54621;SDS011;40521;53.146;6.556;2022-09-20T21:50:58;14.75;;;4.78;;